createdAt,value
2018-03-22T00:00:48.792Z,6.47
2018-03-22T00:03:18.037Z,5.80
2018-03-22T00:05:47.081Z,6.20
2018-03-22T00:08:15.453Z,5.90
2018-03-22T00:10:43.736Z,7.10
2018-03-22T00:13:12.457Z,7.97
2018-03-22T00:15:40.945Z,6.70
2018-03-22T00:18:10.900Z,6.60
2018-03-22T00:20:39.193Z,6.10
2018-03-22T00:23:07.494Z,6.50
2018-03-22T00:25:35.797Z,5.93
2018-03-22T00:28:05.205Z,5.87
2018-03-22T00:30:34.641Z,6.37
2018-03-22T00:33:02.940Z,6.30
2018-03-22T00:35:31.245Z,6.30
2018-03-22T00:37:59.523Z,5.90
2018-03-22T00:40:28.596Z,5.60
2018-03-22T00:42:56.892Z,6.60
2018-03-22T00:45:25.805Z,5.27
2018-03-22T00:47:55.247Z,6.50
2018-03-22T00:50:23.540Z,6.13
2018-03-22T00:52:51.916Z,5.80
2018-03-22T00:55:20.332Z,5.93
2018-03-22T00:57:48.646Z,5.60
2018-03-22T01:00:17.686Z,5.77
2018-03-22T01:02:46.836Z,6.37
2018-03-22T01:05:15.909Z,6.20
2018-03-22T01:07:45.009Z,6.13
2018-03-22T01:10:14.188Z,6.77
2018-03-22T01:12:42.545Z,6.47
2018-03-22T01:15:10.827Z,7.57
2018-03-22T01:17:39.218Z,5.93
2018-03-22T01:20:07.880Z,6.63
2018-03-22T01:22:37.638Z,7.30
2018-03-22T01:25:06.181Z,7.77
2018-03-22T01:27:35.750Z,7.70
2018-03-22T01:30:04.800Z,8.30
2018-03-22T01:32:33.265Z,8.37
2018-03-22T01:35:01.545Z,8.60
2018-03-22T01:37:29.815Z,8.97
2018-03-22T01:39:58.529Z,8.13
2018-03-22T01:42:26.804Z,10.03
2018-03-22T01:44:56.051Z,9.90
2018-03-22T01:47:25.189Z,10.23
2018-03-22T01:49:53.564Z,10.67
2018-03-22T01:52:23.496Z,11.80
2018-03-22T01:54:52.068Z,13.10
2018-03-22T01:57:21.331Z,12.37
2018-03-22T01:59:50.427Z,14.00
2018-03-22T02:02:19.980Z,14.00
2018-03-22T02:04:48.285Z,14.23
2018-03-22T02:07:17.213Z,15.07
2018-03-22T02:09:45.487Z,13.50
2018-03-22T02:12:15.034Z,16.37
2018-03-22T02:14:43.312Z,14.87
2018-03-22T02:17:11.592Z,16.57
2018-03-22T02:19:40.579Z,17.43
2018-03-22T02:22:09.840Z,16.57
2018-03-22T02:24:40.087Z,19.53
2018-03-22T02:27:08.356Z,18.43
2018-03-22T02:29:36.621Z,20.70
2018-03-22T02:32:05.710Z,23.70
2018-03-22T02:34:35.432Z,23.20
2018-03-22T02:37:05.440Z,26.80
2018-03-22T02:39:34.478Z,25.50
2018-03-22T02:42:03.326Z,27.17
2018-03-22T02:44:32.395Z,28.80
2018-03-22T02:47:00.742Z,29.43
2018-03-22T02:49:29.470Z,30.10
2018-03-22T02:51:57.818Z,30.57
2018-03-22T02:54:26.972Z,32.90
2018-03-22T02:56:58.694Z,35.30
2018-03-22T02:59:27.562Z,38.00
2018-03-22T03:01:56.359Z,38.23
2018-03-22T03:04:24.640Z,36.97
2018-03-22T03:06:53.918Z,42.43
2018-03-22T03:09:22.908Z,44.23
2018-03-22T03:11:51.197Z,47.30
2018-03-22T03:14:20.088Z,46.30
2018-03-22T03:16:49.175Z,48.87
2018-03-22T03:19:17.597Z,48.40
2018-03-22T03:21:45.908Z,56.93
2018-03-22T03:24:15.075Z,53.90
2018-03-22T03:26:43.599Z,51.20
2018-03-22T03:29:12.642Z,53.27
2018-03-22T03:31:41.338Z,49.50
2018-03-22T03:34:09.693Z,51.43
2018-03-22T03:36:38.096Z,48.50
2018-03-22T03:39:07.254Z,51.37
2018-03-22T03:41:35.589Z,55.83
2018-03-22T03:44:04.415Z,51.33
2018-03-22T03:46:34.417Z,54.77
2018-03-22T03:49:04.320Z,56.97
2018-03-22T03:51:34.208Z,56.73
2018-03-22T03:54:03.025Z,59.53
2018-03-22T03:56:31.373Z,59.40
2018-03-22T03:58:59.989Z,57.10
2018-03-22T04:01:28.361Z,62.73
2018-03-22T04:03:59.659Z,62.30
2018-03-22T04:06:28.080Z,63.87
2018-03-22T04:08:56.376Z,64.23
2018-03-22T04:11:24.724Z,69.20
2018-03-22T04:13:53.804Z,62.93
2018-03-22T04:16:22.500Z,64.50
2018-03-22T04:18:51.964Z,61.57
2018-03-22T04:21:22.230Z,62.13
2018-03-22T04:23:50.728Z,62.90
2018-03-22T04:26:20.557Z,68.37
2018-03-22T04:28:49.717Z,65.13
2018-03-22T04:31:19.097Z,69.73
2018-03-22T04:33:47.364Z,66.20
2018-03-22T04:36:17.126Z,66.77
2018-03-22T04:38:45.508Z,66.50
2018-03-22T04:41:13.784Z,65.37
2018-03-22T04:43:43.052Z,64.70
2018-03-22T04:46:12.488Z,68.33
2018-03-22T04:48:40.856Z,71.50
2018-03-22T04:51:09.176Z,70.47
2018-03-22T04:53:37.469Z,74.00
2018-03-22T04:56:06.529Z,68.37
2018-03-22T04:58:35.321Z,66.67
2018-03-22T05:01:03.686Z,74.70
2018-03-22T05:03:32.248Z,72.67
2018-03-22T05:06:00.532Z,75.43
2018-03-22T05:08:29.883Z,73.97
2018-03-22T05:10:59.482Z,72.00
2018-03-22T05:13:27.747Z,75.07
2018-03-22T05:15:56.284Z,75.33
2018-03-22T05:18:24.693Z,81.03
2018-03-22T05:20:53.227Z,75.70
2018-03-22T05:23:22.540Z,80.40
2018-03-22T05:25:51.690Z,83.03
2018-03-22T05:28:21.295Z,79.53
2018-03-22T05:30:49.588Z,76.53
2018-03-22T05:33:17.888Z,75.00
2018-03-22T05:35:46.935Z,79.57
2018-03-22T05:38:15.318Z,80.50
2018-03-22T05:40:44.398Z,79.87
2018-03-22T05:43:13.439Z,75.03
2018-03-22T05:45:41.743Z,80.07
2018-03-22T05:48:10.785Z,81.07
2018-03-22T05:50:40.856Z,79.23
2018-03-22T05:53:09.901Z,81.57
2018-03-22T05:55:38.439Z,76.63
2018-03-22T05:58:07.661Z,86.20
2018-03-22T06:00:35.948Z,79.50
2018-03-22T06:03:06.779Z,77.70
2018-03-22T06:05:36.610Z,78.20
2018-03-22T06:08:04.962Z,70.77
2018-03-22T06:10:33.271Z,80.93
2018-03-22T06:13:01.617Z,65.90
2018-03-22T06:15:30.628Z,73.63
2018-03-22T06:17:58.904Z,70.47
2018-03-22T06:20:27.831Z,71.40
2018-03-22T06:22:56.120Z,74.67
2018-03-22T06:25:24.463Z,72.40
2018-03-22T06:27:53.895Z,72.20
2018-03-22T06:30:22.250Z,72.50
2018-03-22T06:32:50.872Z,67.93
2018-03-22T06:35:19.233Z,62.10
2018-03-22T06:37:47.530Z,59.70
2018-03-22T06:40:15.820Z,59.83
2018-03-22T06:42:44.863Z,59.30
2018-03-22T06:45:13.153Z,61.10
2018-03-22T06:47:41.457Z,55.87
2018-03-22T06:50:10.168Z,61.10
2018-03-22T06:52:39.208Z,56.20
2018-03-22T06:55:07.555Z,61.47
2018-03-22T06:57:36.574Z,56.73
2018-03-22T07:00:04.848Z,52.30
2018-03-22T07:02:33.234Z,50.60
2018-03-22T07:05:01.521Z,54.87
2018-03-22T07:07:29.812Z,57.00
2018-03-22T07:09:58.149Z,48.40
2018-03-22T07:12:26.429Z,51.77
2018-03-22T07:14:54.720Z,47.17
2018-03-22T07:17:23.413Z,49.87
2018-03-22T07:19:52.238Z,52.20
2018-03-22T07:22:21.328Z,48.80
2018-03-22T07:24:50.224Z,47.57
2018-03-22T07:27:19.255Z,51.57
2018-03-22T07:29:47.540Z,47.17
2018-03-22T07:32:15.838Z,42.10
2018-03-22T07:34:45.473Z,41.00
2018-03-22T07:37:14.199Z,45.80
2018-03-22T07:39:44.802Z,46.40
2018-03-22T07:42:13.580Z,46.73
2018-03-22T07:44:41.851Z,44.50
2018-03-22T07:47:10.212Z,44.03
2018-03-22T07:49:39.408Z,42.60
2018-03-22T07:52:08.099Z,45.23
2018-03-22T07:54:37.540Z,43.20
2018-03-22T07:57:06.825Z,44.17
2018-03-22T07:59:35.109Z,40.47
2018-03-22T08:02:03.752Z,40.73
2018-03-22T08:04:32.175Z,39.70
2018-03-22T08:07:00.549Z,43.60
2018-03-22T08:09:28.933Z,38.17
2018-03-22T08:11:57.204Z,36.70
2018-03-22T08:14:25.878Z,39.33
2018-03-22T08:16:54.572Z,37.77
2018-03-22T08:19:22.880Z,40.37
2018-03-22T08:21:51.230Z,36.60
2018-03-22T08:24:20.143Z,38.77
2018-03-22T08:26:48.504Z,35.73
2018-03-22T08:29:16.900Z,36.27
2018-03-22T08:31:46.107Z,32.23
2018-03-22T08:34:14.412Z,33.97
2018-03-22T08:36:43.450Z,35.53
2018-03-22T08:39:11.729Z,33.87
2018-03-22T08:41:40.897Z,36.57
2018-03-22T08:44:09.165Z,31.23
2018-03-22T08:46:38.308Z,35.17
2018-03-22T08:49:06.679Z,36.50
2018-03-22T08:51:35.240Z,33.47
2018-03-22T08:54:03.521Z,35.70
2018-03-22T08:56:31.836Z,33.07
2018-03-22T08:59:00.172Z,31.60
2018-03-22T09:01:28.443Z,31.00
2018-03-22T09:03:57.866Z,29.03
2018-03-22T09:06:26.272Z,27.37
2018-03-22T09:08:54.557Z,22.33
2018-03-22T09:11:23.177Z,26.83
2018-03-22T09:13:52.224Z,20.60
2018-03-22T09:16:20.504Z,20.00
2018-03-22T09:18:48.921Z,19.40
2018-03-22T09:21:17.292Z,17.37
2018-03-22T09:23:46.285Z,17.40
2018-03-22T09:26:15.252Z,16.50
2018-03-22T09:28:43.524Z,16.40
2018-03-22T09:31:11.828Z,14.83
2018-03-22T09:33:40.856Z,14.50
2018-03-22T09:36:10.536Z,11.80
2018-03-22T09:38:38.816Z,11.47
2018-03-22T09:41:07.880Z,12.57
2018-03-22T09:43:36.156Z,10.30
2018-03-22T09:46:04.845Z,9.83
2018-03-22T09:48:33.112Z,11.20
2018-03-22T09:51:01.398Z,11.10
2018-03-22T09:53:29.761Z,10.30
2018-03-22T09:55:57.976Z,9.83
2018-03-22T09:58:26.759Z,9.27
2018-03-22T10:00:55.077Z,9.23
2018-03-22T10:03:24.105Z,9.77
2018-03-22T10:05:53.192Z,10.07
2018-03-22T10:08:21.596Z,8.10
2018-03-22T10:10:51.538Z,8.27
2018-03-22T10:13:20.295Z,8.40
2018-03-22T10:15:48.601Z,7.67
2018-03-22T10:18:16.879Z,8.30
2018-03-22T10:20:45.548Z,9.60
2018-03-22T10:23:14.648Z,8.43
2018-03-22T10:25:42.924Z,8.73
2018-03-22T10:28:11.820Z,8.00
2018-03-22T10:30:40.207Z,8.70
2018-03-22T10:33:08.470Z,7.97
2018-03-22T10:35:36.809Z,6.70
2018-03-22T10:38:05.885Z,6.80
2018-03-22T10:40:34.751Z,7.23
2018-03-22T10:43:03.645Z,7.17
2018-03-22T10:45:31.957Z,6.70
2018-03-22T10:48:01.212Z,6.70
2018-03-22T10:50:30.192Z,6.37
2018-03-22T10:52:58.679Z,7.47
2018-03-22T10:55:26.965Z,8.20
2018-03-22T10:57:55.256Z,7.73
2018-03-22T11:00:30.037Z,7.50
2018-03-22T11:06:04.013Z,7.17
2018-03-22T11:08:32.368Z,7.87
2018-03-22T11:11:00.656Z,6.23
2018-03-22T11:13:28.926Z,6.77
2018-03-22T11:15:57.524Z,5.87
2018-03-22T11:18:25.791Z,6.30
2018-03-22T11:20:54.058Z,6.93
2018-03-22T11:23:22.357Z,8.07
2018-03-22T11:25:50.628Z,8.13
2018-03-22T11:28:19.947Z,6.50
2018-03-22T11:30:48.261Z,8.10
2018-03-22T11:33:17.303Z,7.83
2018-03-22T11:35:45.560Z,8.20
2018-03-22T11:38:13.924Z,7.73
2018-03-22T11:40:42.955Z,9.40
2018-03-22T11:43:11.228Z,7.93
2018-03-22T11:45:39.541Z,8.07
2018-03-22T11:48:07.909Z,8.33
2018-03-22T11:50:37.088Z,5.50
2018-03-22T11:53:05.378Z,5.40
2018-03-22T11:55:33.668Z,4.37
2018-03-22T11:58:01.944Z,6.17
2018-03-22T12:00:30.252Z,5.93
2018-03-22T12:02:59.284Z,5.07
2018-03-22T12:05:27.581Z,5.20
2018-03-22T12:07:56.061Z,5.80
2018-03-22T12:10:24.343Z,5.40
2018-03-22T12:12:52.628Z,4.47
2018-03-22T12:15:20.980Z,4.60
2018-03-22T12:17:49.244Z,4.20
2018-03-22T12:20:17.519Z,3.27
2018-03-22T12:22:46.337Z,4.87
2018-03-22T12:25:14.619Z,4.40
2018-03-22T12:27:43.005Z,3.90
2018-03-22T12:30:11.289Z,3.47
2018-03-22T12:32:40.493Z,4.00
2018-03-22T12:35:08.800Z,4.50
2018-03-22T12:37:37.692Z,4.33
2018-03-22T12:40:05.948Z,4.23
2018-03-22T12:42:34.322Z,5.00
2018-03-22T12:45:02.596Z,5.20
2018-03-22T12:47:31.712Z,4.90
2018-03-22T12:50:00.020Z,5.17
2018-03-22T12:52:30.034Z,6.17
2018-03-22T12:54:59.098Z,4.67
2018-03-22T12:57:27.368Z,6.80
2018-03-22T12:59:56.296Z,8.90
2018-03-22T13:02:25.359Z,11.07
2018-03-22T13:04:54.071Z,11.43
2018-03-22T13:07:22.351Z,12.40
2018-03-22T13:09:51.501Z,9.60
2018-03-22T13:12:20.069Z,11.30
2018-03-22T13:14:49.708Z,9.03
2018-03-22T13:17:18.182Z,10.53
2018-03-22T13:19:46.580Z,10.17
2018-03-22T13:22:15.199Z,8.63
2018-03-22T13:24:44.266Z,10.40
2018-03-22T13:27:12.603Z,12.27
2018-03-22T13:29:40.887Z,12.93
2018-03-22T13:32:09.163Z,14.17
2018-03-22T13:34:37.908Z,12.30
2018-03-22T13:37:06.984Z,12.27
2018-03-22T13:39:35.600Z,11.60
2018-03-22T13:42:04.694Z,11.30
2018-03-22T13:44:34.513Z,11.10
2018-03-22T13:47:03.560Z,10.67
2018-03-22T13:49:31.836Z,11.70
2018-03-22T13:52:00.508Z,11.53
2018-03-22T13:54:28.891Z,14.37
2018-03-22T13:56:57.358Z,12.23
2018-03-22T13:59:26.580Z,13.20
2018-03-22T14:01:54.959Z,12.30
2018-03-22T14:04:23.247Z,11.87
2018-03-22T14:06:51.611Z,11.17
2018-03-22T14:09:20.800Z,12.10
2018-03-22T14:11:49.092Z,14.40
2018-03-22T14:14:17.973Z,16.07
2018-03-22T14:16:46.368Z,14.30
2018-03-22T14:19:14.644Z,13.87
2018-03-22T14:21:43.124Z,12.60
2018-03-22T14:24:11.449Z,11.97
2018-03-22T14:26:40.481Z,11.27
2018-03-22T14:29:08.929Z,12.70
2018-03-22T14:31:37.976Z,12.73
2018-03-22T14:34:06.249Z,13.47
2018-03-22T14:36:34.536Z,15.57
2018-03-22T14:39:02.860Z,12.60
2018-03-22T14:41:31.903Z,13.23
2018-03-22T14:44:00.185Z,12.00
2018-03-22T14:46:28.761Z,11.70
2018-03-22T14:48:57.569Z,10.13
2018-03-22T14:51:26.565Z,11.80
2018-03-22T14:53:54.921Z,10.10
2018-03-22T14:56:23.200Z,7.10
2018-03-22T14:58:52.455Z,5.47
2018-03-22T15:01:22.168Z,5.00
2018-03-22T15:03:51.203Z,4.70
2018-03-22T15:06:20.205Z,5.77
2018-03-22T15:08:49.936Z,4.60
2018-03-22T15:11:18.295Z,5.43
2018-03-22T15:13:46.570Z,5.80
2018-03-22T15:16:14.877Z,5.73
2018-03-22T15:18:43.142Z,7.80
2018-03-22T15:21:11.428Z,7.23
2018-03-22T15:23:39.949Z,6.50
2018-03-22T15:26:08.984Z,6.30
2018-03-22T15:28:37.805Z,8.67
2018-03-22T15:31:06.296Z,6.70
2018-03-22T15:33:34.639Z,8.10
2018-03-22T15:36:02.915Z,6.80
2018-03-22T15:38:31.299Z,7.77
2018-03-22T15:41:00.228Z,7.57
2018-03-22T15:43:28.500Z,8.07
2018-03-22T15:45:56.816Z,7.80
2018-03-22T15:48:25.321Z,8.47
2018-03-22T15:50:54.169Z,9.67
2018-03-22T15:53:23.207Z,9.37
2018-03-22T15:55:51.520Z,9.87
2018-03-22T15:58:20.237Z,10.77
2018-03-22T16:00:49.309Z,8.47
2018-03-22T16:03:17.629Z,8.70
2018-03-22T16:05:45.916Z,9.83
2018-03-22T16:08:14.944Z,10.20
2018-03-22T16:10:43.405Z,9.70
2018-03-22T16:13:11.673Z,9.93
2018-03-22T16:15:39.973Z,9.20
2018-03-22T16:18:08.277Z,9.53
2018-03-22T16:20:36.548Z,9.20
2018-03-22T16:23:04.839Z,7.87
2018-03-22T16:25:33.118Z,9.80
2018-03-22T16:28:01.872Z,10.17
2018-03-22T16:30:30.148Z,11.50
2018-03-22T16:32:58.477Z,10.40
2018-03-22T16:35:27.829Z,9.90
2018-03-22T16:37:56.109Z,9.47
2018-03-22T16:40:24.426Z,10.03
2018-03-22T16:42:53.470Z,10.23
2018-03-22T16:45:21.899Z,10.37
2018-03-22T16:47:50.857Z,10.10
2018-03-22T16:50:19.132Z,10.10
2018-03-22T16:52:47.426Z,9.97
2018-03-22T16:55:15.788Z,11.13
2018-03-22T16:57:44.061Z,10.30
2018-03-22T17:00:12.348Z,9.80
2018-03-22T17:02:40.816Z,10.57
2018-03-22T17:05:09.112Z,10.47
2018-03-22T17:07:37.399Z,10.77
2018-03-22T17:10:05.694Z,11.40
2018-03-22T17:12:33.976Z,10.13
2018-03-22T17:15:02.768Z,10.23
2018-03-22T17:17:31.608Z,12.33
2018-03-22T17:20:00.004Z,13.43
2018-03-22T17:22:28.317Z,11.90
2018-03-22T17:24:57.206Z,13.50
2018-03-22T17:27:25.564Z,13.70
2018-03-22T17:29:53.843Z,12.23
2018-03-22T17:32:22.119Z,13.50
2018-03-22T17:34:50.680Z,11.93
2018-03-22T17:37:18.961Z,13.40
2018-03-22T17:39:47.736Z,11.53
2018-03-22T17:42:16.041Z,12.10
2018-03-22T17:44:44.314Z,12.57
2018-03-22T17:47:12.590Z,12.20
2018-03-22T17:49:41.066Z,13.37
2018-03-22T17:52:09.353Z,12.17
2018-03-22T17:54:37.628Z,14.40
2018-03-22T17:57:06.317Z,14.17
2018-03-22T17:59:34.604Z,15.20
2018-03-22T18:02:03.743Z,14.73
2018-03-22T18:04:32.885Z,16.07
2018-03-22T18:07:01.172Z,16.10
2018-03-22T18:09:29.441Z,17.17
2018-03-22T18:11:57.748Z,18.10
2018-03-22T18:14:26.200Z,16.30
2018-03-22T18:16:55.000Z,17.80
2018-03-22T18:19:24.083Z,18.23
2018-03-22T18:21:53.279Z,17.37
2018-03-22T18:24:21.998Z,18.40
2018-03-22T18:26:51.180Z,17.93
2018-03-22T18:29:19.657Z,18.50
2018-03-22T18:31:47.952Z,19.27
2018-03-22T18:34:16.241Z,20.30
2018-03-22T18:36:44.527Z,19.73
2018-03-22T18:39:13.376Z,21.40
2018-03-22T18:41:41.969Z,23.57
2018-03-22T18:44:10.879Z,20.83
2018-03-22T18:46:39.674Z,20.03
2018-03-22T18:49:08.445Z,20.53
2018-03-22T18:51:37.252Z,20.80
2018-03-22T18:54:06.138Z,21.37
2018-03-22T18:56:35.122Z,22.50
2018-03-22T18:59:03.938Z,20.60
2018-03-22T19:01:33.048Z,21.43
2018-03-22T19:04:03.014Z,23.20
2018-03-22T19:06:31.300Z,21.23
2018-03-22T19:08:59.630Z,20.40
2018-03-22T19:11:28.670Z,22.33
2018-03-22T19:13:56.948Z,20.20
2018-03-22T19:16:26.240Z,22.00
2018-03-22T19:18:54.870Z,21.90
2018-03-22T19:21:23.665Z,20.60
2018-03-22T19:23:52.550Z,20.83
2018-03-22T19:26:20.819Z,20.67
2018-03-22T19:28:49.098Z,21.50
2018-03-22T19:31:17.397Z,21.97
2018-03-22T19:33:46.437Z,20.93
2018-03-22T19:36:15.546Z,17.93
2018-03-22T19:38:44.010Z,18.87
2018-03-22T19:41:13.041Z,18.17
2018-03-22T19:43:41.340Z,21.70
2018-03-22T19:46:10.414Z,19.47
2018-03-22T19:48:38.732Z,20.13
2018-03-22T19:51:07.070Z,19.50
2018-03-22T19:53:36.179Z,20.00
2018-03-22T19:56:14.837Z,19.60
2018-03-22T19:58:44.125Z,21.00
2018-03-22T20:01:13.785Z,22.77
2018-03-22T20:03:42.093Z,19.70
2018-03-22T20:06:11.217Z,23.07
2018-03-22T20:08:39.497Z,20.93
2018-03-22T20:11:08.608Z,22.00
2018-03-22T20:13:37.653Z,19.73
2018-03-22T20:16:06.034Z,20.07
2018-03-22T20:18:34.374Z,22.77
2018-03-22T20:21:02.717Z,21.20
2018-03-22T20:23:31.760Z,21.50
2018-03-22T20:26:00.116Z,20.97
2018-03-22T20:28:28.399Z,21.20
2018-03-22T20:30:56.687Z,20.17
2018-03-22T20:33:24.982Z,18.03
2018-03-22T20:35:53.280Z,18.27
2018-03-22T20:38:21.593Z,17.13
2018-03-22T20:40:49.866Z,15.60
2018-03-22T20:43:18.909Z,15.93
2018-03-22T20:45:47.297Z,14.87
2018-03-22T20:48:16.514Z,14.70
2018-03-22T20:50:45.106Z,13.93
2018-03-22T20:53:14.277Z,13.17
2018-03-22T20:55:42.882Z,14.47
2018-03-22T20:58:11.244Z,13.60
2018-03-22T21:00:39.493Z,13.73
2018-03-22T21:03:08.615Z,12.40
2018-03-22T21:05:37.821Z,13.40
2018-03-22T21:08:06.960Z,10.50
2018-03-22T21:10:35.272Z,10.97
2018-03-22T21:13:03.615Z,10.27
2018-03-22T21:15:32.662Z,11.13
2018-03-22T21:18:00.942Z,11.87
2018-03-22T21:20:29.238Z,10.20
2018-03-22T21:22:57.589Z,10.40
2018-03-22T21:25:25.869Z,8.70
2018-03-22T21:27:54.249Z,9.80
2018-03-22T21:30:22.546Z,9.80
2018-03-22T21:32:51.006Z,9.30
2018-03-22T21:35:19.324Z,9.70
2018-03-22T21:37:49.193Z,9.80
2018-03-22T21:40:17.484Z,9.80
2018-03-22T21:42:46.468Z,11.13
2018-03-22T21:45:15.062Z,9.30
2018-03-22T21:47:43.353Z,8.40
2018-03-22T21:50:11.661Z,9.87
2018-03-22T21:52:46.669Z,10.07
2018-03-22T21:55:15.188Z,9.93
2018-03-22T21:57:44.236Z,10.30
2018-03-22T22:00:12.612Z,10.13
2018-03-22T22:02:40.884Z,8.80
2018-03-22T22:05:09.168Z,9.83
2018-03-22T22:07:37.742Z,9.07
2018-03-22T22:10:06.008Z,8.90
2018-03-22T22:12:34.319Z,9.97
2018-03-22T22:15:03.338Z,9.03
2018-03-22T22:17:32.399Z,8.73
2018-03-22T22:20:00.874Z,8.40
2018-03-22T22:22:29.145Z,9.03
2018-03-22T22:24:57.430Z,8.10
2018-03-22T22:27:25.794Z,8.40
2018-03-22T22:29:54.705Z,7.93
2018-03-22T22:32:22.980Z,7.97
2018-03-22T22:34:51.560Z,7.53
2018-03-22T22:37:19.838Z,6.50
2018-03-22T22:39:49.777Z,7.63
2018-03-22T22:42:18.964Z,7.63
2018-03-22T22:44:47.648Z,6.20
2018-03-22T22:47:15.993Z,7.03
2018-03-22T22:49:44.430Z,6.77
2018-03-22T22:52:12.868Z,7.10
2018-03-22T22:54:41.374Z,7.00
2018-03-22T22:57:09.641Z,6.30
2018-03-22T22:59:37.916Z,5.90
2018-03-22T23:02:06.931Z,7.00
2018-03-22T23:04:35.223Z,7.20
2018-03-22T23:07:03.589Z,7.10
2018-03-22T23:09:31.889Z,7.10
2018-03-22T23:12:01.087Z,7.43
2018-03-22T23:14:29.387Z,6.50
2018-03-22T23:16:58.483Z,5.80
2018-03-22T23:19:27.793Z,6.70
2018-03-22T23:21:56.084Z,6.67
2018-03-22T23:24:25.713Z,7.10
2018-03-22T23:26:54.841Z,6.13
2018-03-22T23:29:23.390Z,6.40
2018-03-22T23:31:51.706Z,6.20
2018-03-22T23:34:20.072Z,5.63
2018-03-22T23:36:48.368Z,5.83
2018-03-22T23:39:16.652Z,6.20
2018-03-22T23:41:45.691Z,4.97
2018-03-22T23:44:14.794Z,4.43
2018-03-22T23:46:43.084Z,5.10
2018-03-22T23:49:11.373Z,5.33
2018-03-22T23:51:39.665Z,4.87
2018-03-22T23:54:08.890Z,4.70
2018-03-22T23:56:37.916Z,4.97
2018-03-22T23:59:06.416Z,5.53
